Time;durP1;ratioP1;P1;durP2;ratioP2;P2;SDS_P1;SDS_P2;PMS_P1;PMS_P2;Temp;Humidity;BMP_temperature;BMP_pressure;BME280_temperature;BME280_humidity;BME280_pressure;Samples;Min_cycle;Max_cycle;Signal;HPM_P1;HPM_P2
2021/06/07 00:01:31;;;;;;;4.90;4.50;;;;;;;17.90;100.00;95255.94;4993220;28;20208;-83
2021/06/07 00:03:58;;;;;;;5.30;4.87;;;;;;;17.81;100.00;95234.22;4993067;28;20303;-83
2021/06/07 00:06:25;;;;;;;5.10;4.70;;;;;;;17.77;100.00;95230.41;4993165;28;20200;-83
2021/06/07 00:08:54;;;;;;;5.33;4.83;;;;;;;17.55;100.00;95110.50;4992899;28;20201;-83
2021/06/07 00:11:21;;;;;;;5.00;4.60;;;;;;;17.48;100.00;94971.69;4993297;28;20208;-83
2021/06/07 00:13:49;;;;;;;4.40;4.00;;;;;;;17.66;100.00;94937.00;4992517;28;20208;-83
2021/06/07 00:16:17;;;;;;;5.20;4.70;;;;;;;17.50;100.00;94895.25;4993046;28;20196;-83
2021/06/07 00:18:44;;;;;;;5.30;4.80;;;;;;;17.34;100.00;94831.19;4992723;28;20672;-83
2021/06/07 00:21:14;;;;;;;4.93;4.53;;;;;;;17.32;100.00;94819.19;4992967;28;20234;-83
2021/06/07 00:23:43;;;;;;;5.10;4.70;;;;;;;17.31;100.00;94799.78;4992547;28;20259;-83
2021/06/07 00:26:12;;;;;;;6.17;4.97;;;;;;;17.32;100.00;94793.44;4993203;28;20564;-83
2021/06/07 00:28:39;;;;;;;4.37;4.07;;;;;;;17.36;100.00;94820.34;4992605;28;20203;-83
2021/06/07 00:31:07;;;;;;;5.20;4.60;;;;;;;17.39;100.00;94790.66;4992783;28;20286;-83
2021/06/07 00:33:34;;;;;;;6.17;5.40;;;;;;;17.30;100.00;94822.06;4992316;28;20294;-83
2021/06/07 00:36:02;;;;;;;5.03;4.27;;;;;;;17.22;100.00;94702.97;4991408;28;20208;-83
2021/06/07 00:38:29;;;;;;;5.67;4.73;;;;;;;17.20;100.00;94662.56;4990789;28;20712;-82
2021/06/07 00:40:57;;;;;;;5.97;5.37;;;;;;;17.22;100.00;94732.19;4992479;28;20263;-83
2021/06/07 00:43:26;;;;;;;7.17;5.03;;;;;;;17.17;100.00;94814.38;4992414;28;20208;-82
2021/06/07 00:45:53;;;;;;;6.23;5.20;;;;;;;17.11;100.00;94775.50;4992383;28;20300;-83
2021/06/07 00:48:19;;;;;;;6.70;4.90;;;;;;;16.97;100.00;94708.63;4992307;28;20294;-83
2021/06/07 00:50:49;;;;;;;4.70;4.40;;;;;;;16.87;100.00;94639.44;4992876;28;20196;-82
2021/06/07 00:53:18;;;;;;;5.70;5.20;;;;;;;16.80;100.00;94628.13;4992291;28;20235;-83
2021/06/07 00:55:48;;;;;;;5.17;4.77;;;;;;;16.65;100.00;94602.91;4992492;28;20758;-83
2021/06/07 00:58:17;;;;;;;6.27;5.33;;;;;;;16.61;100.00;94643.41;4992325;28;20188;-83
2021/06/07 01:00:46;;;;;;;5.77;5.37;;;;;;;16.73;100.00;94616.84;4992476;28;20280;-83
2021/06/07 01:03:15;;;;;;;5.63;5.23;;;;;;;16.63;100.00;94593.59;4992328;28;20208;-83
2021/06/07 01:05:42;;;;;;;4.80;4.40;;;;;;;16.84;100.00;94646.03;4992513;28;20299;-83
2021/06/07 01:08:09;;;;;;;4.90;4.50;;;;;;;16.88;100.00;94686.94;4992358;28;20204;-83
2021/06/07 01:10:36;;;;;;;4.90;4.60;;;;;;;16.92;100.00;94671.38;4992318;28;20224;-83
2021/06/07 01:13:03;;;;;;;9.13;4.87;;;;;;;16.88;100.00;94681.66;4992144;28;20301;-83
2021/06/07 01:15:30;;;;;;;6.63;4.80;;;;;;;16.82;100.00;94640.13;4992293;28;20207;-83
2021/06/07 01:17:58;;;;;;;5.30;4.80;;;;;;;16.79;100.00;94602.66;4992297;28;20196;-83
2021/06/07 01:20:25;;;;;;;5.23;4.80;;;;;;;16.80;100.00;94573.25;4992168;28;20223;-83
2021/06/07 01:22:55;;;;;;;6.60;4.53;;;;;;;16.83;100.00;94562.16;4992358;28;20207;-83
2021/06/07 01:25:25;;;;;;;6.33;5.83;;;;;;;16.81;100.00;94577.50;4992135;28;20205;-83
2021/06/07 01:27:53;;;;;;;5.07;4.30;;;;;;;16.70;100.00;94604.06;4992312;28;20203;-83
2021/06/07 01:30:26;;;;;;;5.80;5.00;;;;;;;16.70;100.00;94610.19;4992351;28;20572;-83
2021/06/07 01:32:53;;;;;;;5.50;5.00;;;;;;;16.73;100.00;94611.53;4992161;28;20188;-83
2021/06/07 01:35:21;;;;;;;5.37;4.87;;;;;;;16.88;100.00;94601.25;4991863;28;20240;-83
2021/06/07 01:37:49;;;;;;;6.53;4.80;;;;;;;16.87;100.00;94592.47;4992436;28;20606;-83
2021/06/07 01:40:21;;;;;;;5.40;5.00;;;;;;;16.76;100.00;94580.06;4992101;28;20255;-83
2021/06/07 01:42:47;;;;;;;5.27;4.70;;;;;;;16.72;100.00;94560.31;4992135;28;20773;-83
2021/06/07 01:45:17;;;;;;;6.27;4.70;;;;;;;16.82;100.00;94565.03;4991983;28;20200;-83
2021/06/07 01:47:44;;;;;;;4.40;4.10;;;;;;;16.90;100.00;94587.72;4992069;28;20204;-83
2021/06/07 01:50:13;;;;;;;4.70;4.30;;;;;;;16.89;100.00;94613.47;4991794;28;20197;-83
2021/06/07 01:52:44;;;;;;;5.13;4.63;;;;;;;17.00;100.00;94603.81;4991998;28;20647;-83
2021/06/07 01:55:13;;;;;;;4.70;4.30;;;;;;;17.05;100.00;94574.72;4991861;28;20625;-83
2021/06/07 01:57:42;;;;;;;5.20;4.80;;;;;;;17.15;100.00;94612.06;4993782;28;20208;-83
2021/06/07 02:00:12;;;;;;;5.30;4.80;;;;;;;17.18;100.00;94638.13;4995015;28;20228;-83
2021/06/07 02:02:43;;;;;;;5.47;4.63;;;;;;;17.26;100.00;94644.91;4995469;28;20201;-83
2021/06/07 02:05:11;;;;;;;6.30;5.83;;;;;;;17.17;100.00;94631.19;4995524;28;20219;-83
2021/06/07 02:07:43;;;;;;;5.93;5.33;;;;;;;17.03;100.00;94606.00;4995531;28;20228;-83
2021/06/07 02:10:12;;;;;;;5.10;4.70;;;;;;;17.02;100.00;94573.34;4995119;28;20188;-83
2021/06/07 02:12:39;;;;;;;5.13;4.60;;;;;;;16.90;100.00;94577.09;4995528;28;20207;-83
2021/06/07 02:15:10;;;;;;;5.20;4.70;;;;;;;16.84;100.00;94555.00;4995531;28;20688;-83
2021/06/07 02:17:37;;;;;;;5.97;5.47;;;;;;;16.88;100.00;94533.06;4995016;28;20180;-83
2021/06/07 02:20:06;;;;;;;5.43;5.03;;;;;;;17.01;100.00;94536.44;4994846;28;20286;-83
2021/06/07 02:22:35;;;;;;;7.03;5.07;;;;;;;17.00;100.00;94535.63;4995105;28;20200;-83
2021/06/07 02:25:02;;;;;;;5.63;4.97;;;;;;;16.98;100.00;94547.53;4994604;28;20317;-83
2021/06/07 02:27:30;;;;;;;5.97;4.63;;;;;;;16.94;100.00;94538.44;4995049;28;20206;-83
2021/06/07 02:29:58;;;;;;;5.07;4.67;;;;;;;17.06;100.00;94549.78;4995040;28;20192;-84
2021/06/07 02:32:26;;;;;;;7.23;5.37;;;;;;;16.81;100.00;94540.34;4995239;28;20633;-83
2021/06/07 02:34:53;;;;;;;6.17;4.97;;;;;;;16.68;100.00;94514.09;4994390;28;20236;-83
2021/06/07 02:37:20;;;;;;;6.97;5.80;;;;;;;16.64;100.00;94499.72;4994805;28;20203;-84
2021/06/07 02:39:47;;;;;;;7.13;4.93;;;;;;;16.59;100.00;94449.22;4994554;28;20228;-83
2021/06/07 02:42:15;;;;;;;4.87;4.47;;;;;;;16.64;100.00;94433.41;4994710;28;20200;-84
2021/06/07 02:44:41;;;;;;;5.07;4.77;;;;;;;16.70;100.00;94427.13;4994544;28;20204;-83
2021/06/07 02:47:08;;;;;;;8.67;4.63;;;;;;;16.64;100.00;94425.44;4994367;28;20200;-83
2021/06/07 02:49:37;;;;;;;5.73;5.23;;;;;;;16.61;100.00;94420.63;4994745;28;20286;-83
2021/06/07 02:52:04;;;;;;;5.40;5.00;;;;;;;16.57;100.00;94399.09;4994536;28;20204;-83
2021/06/07 02:54:31;;;;;;;5.90;5.40;;;;;;;16.69;100.00;94383.06;4994165;28;20236;-83
2021/06/07 02:56:58;;;;;;;6.13;5.63;;;;;;;16.70;100.00;94402.47;4994515;28;20259;-83
2021/06/07 02:59:25;;;;;;;6.03;5.40;;;;;;;16.67;100.00;94397.66;4994283;28;20322;-83
2021/06/07 03:01:52;;;;;;;16.87;15.20;;;;;;;16.76;100.00;94397.00;4994808;28;20645;-83
2021/06/07 03:04:18;;;;;;;51.27;40.53;;;;;;;16.69;100.00;94396.34;4994108;28;20199;-83
2021/06/07 03:06:47;;;;;;;49.43;37.30;;;;;;;16.74;100.00;94408.88;4994217;28;20204;-83
2021/06/07 03:09:14;;;;;;;35.47;27.13;;;;;;;16.77;100.00;94403.13;4993022;28;20204;-83
2021/06/07 03:11:41;;;;;;;13.97;12.47;;;;;;;16.80;100.00;94386.72;4994570;28;20199;-83
2021/06/07 03:14:07;;;;;;;9.13;8.00;;;;;;;16.72;100.00;94401.16;4993712;28;20200;-83
2021/06/07 03:16:34;;;;;;;12.00;9.97;;;;;;;16.82;100.00;94405.84;4994077;28;20573;-83
2021/06/07 03:19:01;;;;;;;12.63;9.73;;;;;;;16.91;100.00;94454.03;4994227;28;20625;-83
2021/06/07 03:21:28;;;;;;;12.93;10.20;;;;;;;16.97;100.00;94429.97;4994518;28;20700;-83
2021/06/07 03:23:56;;;;;;;7.20;6.43;;;;;;;16.93;100.00;94467.84;4993817;28;20203;-83
2021/06/07 03:26:23;;;;;;;8.30;6.37;;;;;;;16.96;100.00;94494.69;4994001;28;20247;-84
2021/06/07 03:28:50;;;;;;;5.40;4.90;;;;;;;16.86;100.00;94462.69;4993776;28;20200;-83
2021/06/07 03:31:17;;;;;;;7.07;6.27;;;;;;;16.85;100.00;94443.31;4993644;28;20207;-83
2021/06/07 03:33:44;;;;;;;5.97;5.47;;;;;;;17.05;100.00;94395.03;4992346;28;20802;-83
2021/06/07 03:36:11;;;;;;;6.03;5.43;;;;;;;17.00;100.00;94378.25;4992482;28;20204;-82
2021/06/07 03:38:38;;;;;;;8.03;5.63;;;;;;;16.92;100.00;94389.28;4992467;28;20196;-83
2021/06/07 03:41:08;;;;;;;7.40;6.80;;;;;;;17.00;100.00;94355.16;4992476;28;20256;-82
2021/06/07 03:43:37;;;;;;;6.33;5.77;;;;;;;17.19;100.00;94347.72;4992132;28;20196;-83
2021/06/07 03:46:04;;;;;;;6.27;5.73;;;;;;;17.09;100.00;94335.13;4991828;28;20251;-83
2021/06/07 03:48:31;;;;;;;6.00;5.50;;;;;;;17.09;100.00;94343.06;4992476;28;20646;-83
2021/06/07 03:50:59;;;;;;;6.03;5.43;;;;;;;17.19;100.00;94353.03;4992465;28;20193;-84
2021/06/07 03:53:26;;;;;;;5.90;5.30;;;;;;;17.05;100.00;94357.88;4992144;28;20747;-83
2021/06/07 03:55:53;;;;;;;5.27;4.83;;;;;;;16.94;100.00;94336.75;4992799;28;20207;-83
2021/06/07 03:58:22;;;;;;;5.80;5.27;;;;;;;16.97;100.00;94338.91;4991558;28;20235;-84
2021/06/07 04:00:49;;;;;;;5.87;5.43;;;;;;;16.94;100.00;94379.22;4992479;28;20311;-84
2021/06/07 04:03:16;;;;;;;6.37;5.80;;;;;;;16.91;100.00;94435.44;4992031;28;20204;-84
2021/06/07 04:05:42;;;;;;;6.10;5.60;;;;;;;16.88;100.00;94403.03;4992386;28;20200;-84
2021/06/07 04:08:11;;;;;;;6.00;5.40;;;;;;;16.87;100.00;94358.97;4991996;28;20208;-83
2021/06/07 04:10:40;;;;;;;6.17;5.57;;;;;;;16.92;100.00;94337.00;4991841;28;20263;-84
2021/06/07 04:13:07;;;;;;;7.50;5.20;;;;;;;16.94;100.00;94340.22;4977855;28;20240;-85
2021/06/07 04:15:35;;;;;;;6.10;5.60;;;;;;;16.93;100.00;94389.03;4973306;28;20197;-85
2021/06/07 04:18:02;;;;;;;8.50;5.50;;;;;;;16.93;100.00;94428.03;4973233;28;20559;-85
2021/06/07 04:20:31;;;;;;;5.73;5.23;;;;;;;16.92;100.00;94442.34;4976077;28;20232;-85
2021/06/07 04:22:58;;;;;;;6.07;5.47;;;;;;;17.04;100.00;94440.41;4973640;28;20697;-84
2021/06/07 04:25:26;;;;;;;5.27;4.77;;;;;;;17.01;100.00;94420.47;4973527;28;20630;-84
2021/06/07 04:27:54;;;;;;;6.17;5.67;;;;;;;17.08;100.00;94402.53;4973366;28;20211;-84
2021/06/07 04:30:23;;;;;;;5.07;4.63;;;;;;;17.14;100.00;94408.69;4973347;28;20607;-84
2021/06/07 04:32:53;;;;;;;5.97;5.30;;;;;;;17.25;100.00;94394.53;4973351;28;20212;-84
2021/06/07 04:35:21;;;;;;;5.00;4.60;;;;;;;17.29;100.00;94405.47;4973107;28;20232;-84
2021/06/07 04:37:51;;;;;;;5.17;4.57;;;;;;;17.24;100.00;94403.53;4973089;28;20236;-83
2021/06/07 04:40:20;;;;;;;7.27;5.50;;;;;;;17.28;100.00;94399.34;4973482;28;20276;-84
2021/06/07 04:42:47;;;;;;;7.77;6.00;;;;;;;17.53;100.00;94371.50;4973465;28;20205;-84
2021/06/07 04:45:14;;;;;;;6.23;5.73;;;;;;;17.81;100.00;94376.63;4972769;28;20296;-83
2021/06/07 04:47:41;;;;;;;6.03;5.53;;;;;;;17.92;100.00;94388.16;4973164;28;20201;-84
2021/06/07 04:50:11;;;;;;;5.77;5.27;;;;;;;17.91;100.00;94438.88;4973331;28;20223;-83
2021/06/07 04:52:57;;;;;;;5.67;5.20;;;;;;;18.03;100.00;94458.19;4973247;28;20193;-84
2021/06/07 04:55:27;;;;;;;6.07;4.90;;;;;;;18.15;100.00;94460.69;4973663;28;20542;-83
2021/06/07 04:57:54;;;;;;;6.40;5.33;;;;;;;18.27;100.00;94568.53;4973162;28;20197;-83
2021/06/07 05:00:22;;;;;;;5.57;4.83;;;;;;;18.49;100.00;94634.22;4973219;28;20228;-83
2021/06/07 05:02:50;;;;;;;11.17;4.87;;;;;;;18.59;100.00;94655.63;4972994;28;20317;-84
2021/06/07 05:05:19;;;;;;;5.70;5.30;;;;;;;18.72;100.00;94702.38;4972649;28;20205;-84
2021/06/07 05:07:46;;;;;;;7.20;4.53;;;;;;;18.81;100.00;94793.22;4973012;28;20211;-83
2021/06/07 05:10:15;;;;;;;5.57;4.47;;;;;;;18.80;100.00;94956.66;4972855;28;20201;-84
2021/06/07 05:12:42;;;;;;;5.10;4.60;;;;;;;18.92;100.00;94954.75;4972964;28;20201;-84
2021/06/07 05:15:10;;;;;;;6.20;5.00;;;;;;;19.01;100.00;94961.25;4972564;28;20201;-84
2021/06/07 05:17:38;;;;;;;5.63;4.63;;;;;;;19.17;100.00;95008.38;4972934;28;20201;-84
2021/06/07 05:20:07;;;;;;;4.47;4.10;;;;;;;19.23;100.00;95047.38;4972688;28;20268;-84
2021/06/07 05:22:35;;;;;;;6.27;4.70;;;;;;;19.34;100.00;95117.59;4972853;28;20197;-83
2021/06/07 05:25:03;;;;;;;5.43;4.93;;;;;;;19.39;100.00;95164.81;4972716;28;20678;-84
2021/06/07 05:27:30;;;;;;;5.70;5.20;;;;;;;19.51;100.00;95242.06;4972857;28;20686;-85
2021/06/07 05:29:58;;;;;;;4.70;4.30;;;;;;;19.69;100.00;95268.53;4972626;28;20695;-84
2021/06/07 05:32:25;;;;;;;5.03;4.63;;;;;;;20.02;100.00;95286.44;4974222;28;20212;-84
2021/06/07 05:34:51;;;;;;;7.17;4.50;;;;;;;20.17;100.00;95270.66;4976212;28;20264;-84
2021/06/07 05:37:18;;;;;;;5.20;4.70;;;;;;;19.96;100.00;95338.06;4976858;28;20205;-84
2021/06/07 05:39:48;;;;;;;4.93;4.53;;;;;;;19.90;100.00;95360.34;4976147;28;20232;-82
2021/06/07 05:42:14;;;;;;;5.57;4.73;;;;;;;20.08;100.00;95357.47;4976335;28;20201;-82
2021/06/07 05:44:41;;;;;;;4.63;4.27;;;;;;;20.06;100.00;95420.94;4976191;28;20204;-82
2021/06/07 05:47:08;;;;;;;5.00;4.53;;;;;;;20.07;100.00;95432.41;4976611;28;20209;-82
2021/06/07 05:49:38;;;;;;;5.00;4.50;;;;;;;20.01;100.00;95367.47;4976052;28;20197;-82
2021/06/07 05:52:06;;;;;;;8.60;5.37;;;;;;;19.88;100.00;95309.94;4976373;28;20193;-82
2021/06/07 05:54:33;;;;;;;5.63;5.13;;;;;;;19.87;100.00;95294.16;4976090;28;20202;-82
2021/06/07 05:57:03;;;;;;;9.00;5.37;;;;;;;19.85;100.00;95325.59;4976694;28;20275;-82
2021/06/07 05:59:30;;;;;;;11.60;6.03;;;;;;;19.87;100.00;95323.50;4975849;28;20194;-82
2021/06/07 06:01:57;;;;;;;5.87;5.00;;;;;;;19.90;100.00;95376.34;4975848;28;20204;-82
2021/06/07 06:04:24;;;;;;;5.20;4.80;;;;;;;19.89;100.00;95374.72;4975847;28;20262;-82
2021/06/07 06:06:50;;;;;;;5.07;4.67;;;;;;;19.85;100.00;95389.59;4976012;28;20203;-82
2021/06/07 06:09:17;;;;;;;5.43;4.87;;;;;;;19.81;100.00;95391.09;4975750;28;20228;-82
2021/06/07 06:11:44;;;;;;;5.10;4.60;;;;;;;19.85;100.00;95331.75;4974835;28;20204;-82
2021/06/07 06:14:12;;;;;;;5.50;5.00;;;;;;;19.94;100.00;95316.16;4974542;28;20263;-82
2021/06/07 06:16:39;;;;;;;5.30;4.90;;;;;;;20.12;100.00;95331.13;4976019;28;20564;-82
2021/06/07 06:19:06;;;;;;;4.97;4.57;;;;;;;20.04;100.00;95388.34;4975613;28;20213;-81
2021/06/07 06:21:37;;;;;;;5.43;4.93;;;;;;;20.04;100.00;95388.34;4975481;28;20263;-82
2021/06/07 06:24:04;;;;;;;5.00;4.50;;;;;;;20.10;100.00;95478.09;4975583;28;20205;-82
2021/06/07 06:26:31;;;;;;;5.80;5.17;;;;;;;20.15;100.00;95334.09;4975601;28;20259;-82
2021/06/07 06:28:58;;;;;;;6.23;5.73;;;;;;;20.05;100.00;95160.56;4975279;28;20232;-81
2021/06/07 06:31:26;;;;;;;6.53;5.83;;;;;;;20.17;100.00;95118.59;4975473;28;20197;-82
2021/06/07 06:33:53;;;;;;;5.73;5.27;;;;;;;20.38;100.00;95133.00;4975160;28;20236;-81
2021/06/07 06:36:20;;;;;;;7.73;6.63;;;;;;;20.57;100.00;95120.19;4975414;28;20201;-81
2021/06/07 06:38:47;;;;;;;8.40;6.17;;;;;;;20.66;100.00;95158.75;4975069;28;20209;-81
2021/06/07 06:41:14;;;;;;;11.93;5.63;;;;;;;20.46;100.00;95171.00;4975240;28;20638;-81
2021/06/07 06:43:41;;;;;;;7.03;6.43;;;;;;;20.67;100.00;95106.94;4975028;28;20212;-81
2021/06/07 06:46:08;;;;;;;10.30;7.17;;;;;;;20.87;100.00;95084.19;4975553;28;20205;-82
2021/06/07 06:48:36;;;;;;;8.43;7.13;;;;;;;21.29;100.00;95118.25;4975107;28;20741;-81
2021/06/07 06:51:04;;;;;;;8.03;7.23;;;;;;;21.36;100.00;95165.13;4975509;28;20235;-82
2021/06/07 06:53:31;;;;;;;8.50;7.17;;;;;;;21.16;100.00;95170.22;4975391;28;20686;-81
2021/06/07 06:55:58;;;;;;;7.43;6.80;;;;;;;21.12;100.00;95198.50;4975093;28;20263;-82
2021/06/07 06:58:24;;;;;;;7.60;6.37;;;;;;;20.99;100.00;95183.69;4974737;28;20201;-82
2021/06/07 07:00:51;;;;;;;6.70;5.63;;;;;;;21.22;100.00;95217.31;4975181;28;20225;-82
2021/06/07 07:03:20;;;;;;;7.67;6.43;;;;;;;22.03;100.00;95256.63;4974849;28;20200;-82
2021/06/07 07:05:49;;;;;;;6.80;6.20;;;;;;;22.16;100.00;95335.72;4975180;28;20213;-82
2021/06/07 07:08:17;;;;;;;6.47;5.87;;;;;;;22.29;100.00;95416.41;4974761;28;20233;-81
2021/06/07 07:10:45;;;;;;;6.10;5.60;;;;;;;22.76;100.00;95401.56;4974603;28;20295;-82
2021/06/07 07:13:12;;;;;;;5.60;5.10;;;;;;;22.98;100.00;95504.09;4974622;28;20199;-81
2021/06/07 07:15:39;;;;;;;6.17;5.37;;;;;;;23.22;100.00;95585.00;4974743;28;20232;-81
2021/06/07 07:18:08;;;;;;;6.47;5.97;;;;;;;23.18;100.00;95591.94;4974642;28;20260;-82
2021/06/07 07:20:35;;;;;;;8.53;5.60;;;;;;;23.34;100.00;95499.00;4974534;28;20232;-81
2021/06/07 07:23:05;;;;;;;6.27;5.63;;;;;;;22.82;100.00;95467.47;4974519;28;20613;-81
2021/06/07 07:25:32;;;;;;;6.10;5.50;;;;;;;22.94;100.00;95393.13;4974701;28;20197;-81
2021/06/07 07:27:59;;;;;;;6.87;6.27;;;;;;;22.88;100.00;95454.94;4974632;28;20205;-81
2021/06/07 07:30:27;;;;;;;5.90;5.50;;;;;;;22.57;100.00;95449.31;4974325;28;20197;-81
2021/06/07 07:32:56;;;;;;;7.37;6.73;;;;;;;22.57;100.00;95427.09;4974348;28;20232;-81
2021/06/07 07:35:25;;;;;;;8.40;7.23;;;;;;;22.53;100.00;95371.38;4974099;28;20197;-82
2021/06/07 07:37:53;;;;;;;6.87;6.27;;;;;;;22.12;100.00;95380.06;4974539;28;20212;-82
2021/06/07 07:40:23;;;;;;;8.13;7.37;;;;;;;22.01;100.00;95382.63;4974096;28;20228;-82
2021/06/07 07:42:53;;;;;;;10.93;6.57;;;;;;;21.94;100.00;95374.00;4973869;28;20208;-84
2021/06/07 07:45:24;;;;;;;7.50;6.80;;;;;;;21.98;100.00;95340.34;4974055;28;20654;-84
2021/06/07 07:47:50;;;;;;;6.87;6.27;;;;;;;22.00;100.00;95399.75;4974366;28;20340;-84
2021/06/07 07:50:19;;;;;;;11.33;6.70;;;;;;;21.85;100.00;95370.16;4974163;28;20204;-84
2021/06/07 07:52:47;;;;;;;7.60;6.83;;;;;;;21.98;100.00;95351.03;4974092;28;20200;-84
2021/06/07 07:55:18;;;;;;;10.00;6.93;;;;;;;21.94;100.00;95346.44;4973077;28;20201;-84
2021/06/07 07:57:46;;;;;;;7.30;6.60;;;;;;;21.95;100.00;95382.84;4973968;28;20584;-84
2021/06/07 08:00:15;;;;;;;8.60;6.90;;;;;;;21.93;100.00;95419.75;4973719;28;20719;-84
2021/06/07 08:02:42;;;;;;;7.27;6.60;;;;;;;21.99;100.00;95426.75;4973733;28;20584;-82
2021/06/07 08:05:11;;;;;;;11.13;6.60;;;;;;;22.00;100.00;95466.66;4973482;28;20694;-82
2021/06/07 08:07:38;;;;;;;8.37;6.77;;;;;;;22.45;100.00;95519.09;4973722;28;20674;-81
2021/06/07 08:10:07;;;;;;;9.23;7.40;;;;;;;22.36;100.00;95542.03;4973785;28;20288;-81
2021/06/07 08:12:34;;;;;;;7.90;7.03;;;;;;;22.50;100.00;95529.88;4973714;28;20234;-84
2021/06/07 08:15:05;;;;;;;8.33;7.63;;;;;;;22.54;100.00;95522.13;4973467;28;20683;-82
2021/06/07 08:17:31;;;;;;;7.40;6.80;;;;;;;22.30;100.00;95543.03;4973750;28;20196;-82
2021/06/07 08:19:58;;;;;;;7.53;6.73;;;;;;;22.72;100.00;95564.66;4973309;28;20267;-82
2021/06/07 08:22:25;;;;;;;7.63;6.90;;;;;;;22.83;100.00;95613.00;4973633;28;20205;-82
2021/06/07 08:24:52;;;;;;;10.73;7.33;;;;;;;22.88;100.00;95597.75;4973342;28;20249;-82
2021/06/07 08:27:19;;;;;;;8.47;7.53;;;;;;;22.86;100.00;95594.53;4973760;28;20236;-82
2021/06/07 08:29:46;;;;;;;8.03;6.73;;;;;;;22.72;100.00;95617.41;4973572;28;20232;-82
2021/06/07 08:32:14;;;;;;;7.73;7.13;;;;;;;22.71;100.00;95599.72;4973562;28;20898;-82
2021/06/07 08:34:41;;;;;;;7.20;6.60;;;;;;;22.65;100.00;95662.31;4973117;28;20232;-82
2021/06/07 08:37:08;;;;;;;7.43;6.67;;;;;;;22.69;100.00;95674.19;4973287;28;20670;-82
2021/06/07 08:39:35;;;;;;;7.37;6.67;;;;;;;22.53;100.00;95655.22;4973121;28;20201;-83
2021/06/07 08:42:02;;;;;;;11.17;7.73;;;;;;;22.44;100.00;95627.25;4973116;28;20208;-82
2021/06/07 08:44:29;;;;;;;9.17;7.77;;;;;;;22.48;100.00;95555.25;4973068;28;20589;-83
2021/06/07 08:46:57;;;;;;;7.60;6.90;;;;;;;22.34;100.00;95640.50;4973513;28;20196;-82
2021/06/07 08:49:26;;;;;;;8.90;8.00;;;;;;;22.20;100.00;95593.75;4973070;28;20193;-82
2021/06/07 08:51:53;;;;;;;10.20;7.57;;;;;;;22.27;100.00;95645.22;4973026;28;20582;-82
2021/06/07 08:54:20;;;;;;;10.53;7.47;;;;;;;22.28;100.00;95642.31;4973184;28;20193;-82
2021/06/07 08:56:47;;;;;;;10.07;7.03;;;;;;;22.33;100.00;95672.88;4973424;28;20208;-82
2021/06/07 08:59:15;;;;;;;11.17;7.57;;;;;;;22.55;100.00;95658.47;4973039;28;20212;-82
2021/06/07 09:01:42;;;;;;;10.37;7.60;;;;;;;22.54;100.00;95634.59;4972992;28;20220;-83
2021/06/07 09:04:14;;;;;;;8.10;7.30;;;;;;;22.45;100.00;95669.06;4972714;28;20201;-84
2021/06/07 09:06:44;;;;;;;10.47;6.80;;;;;;;22.49;100.00;95597.06;4973396;28;20578;-83
2021/06/07 09:09:13;;;;;;;10.17;7.37;;;;;;;22.51;100.00;95629.75;4976964;28;20189;-84
2021/06/07 09:11:46;;;;;;;6.60;6.00;;;;;;;22.43;100.00;95727.38;4976745;28;20213;-82
2021/06/07 09:14:17;;;;;;;10.10;7.03;;;;;;;22.27;100.00;95632.69;4977359;28;20256;-82
2021/06/07 09:16:44;;;;;;;8.83;6.97;;;;;;;22.03;100.00;95618.69;4977150;28;20311;-82
2021/06/07 09:19:19;;;;;;;7.07;6.33;;;;;;;21.92;100.00;95681.09;4976771;28;20201;-82
2021/06/07 09:21:48;;;;;;;6.80;6.20;;;;;;;21.98;100.00;95680.13;4976758;28;20227;-82
2021/06/07 09:24:15;;;;;;;10.73;5.70;;;;;;;21.96;100.00;95670.72;4976778;28;20305;-82
2021/06/07 09:26:44;;;;;;;6.60;5.93;;;;;;;21.76;100.00;95669.38;4976930;28;20745;-82
2021/06/07 09:29:32;;;;;;;9.33;5.97;;;;;;;21.72;100.00;95648.72;4976573;28;20197;-82
2021/06/07 09:32:00;;;;;;;7.67;6.97;;;;;;;21.85;100.00;95576.13;4976714;28;20189;-82
2021/06/07 09:34:28;;;;;;;6.77;6.17;;;;;;;21.77;100.00;95598.75;4976018;28;20232;-82
2021/06/07 09:37:04;;;;;;;6.33;5.63;;;;;;;21.93;100.00;95564.22;4976774;28;20239;-82
2021/06/07 09:39:31;;;;;;;9.47;6.77;;;;;;;21.94;100.00;95638.06;4976579;28;20209;-83
2021/06/07 09:42:00;;;;;;;6.53;5.83;;;;;;;22.12;100.00;95604.84;4976592;28;20228;-82
2021/06/07 09:44:37;;;;;;;5.70;5.30;;;;;;;21.98;100.00;95559.72;4976123;28;20205;-83
2021/06/07 09:47:11;;;;;;;6.00;5.50;;;;;;;21.78;100.00;95528.16;4976588;28;20212;-83
2021/06/07 09:49:40;;;;;;;5.70;5.20;;;;;;;21.59;100.00;95487.53;4976151;28;20193;-82
2021/06/07 09:52:12;;;;;;;6.87;6.20;;;;;;;21.59;100.00;95468.81;4976461;28;20279;-83
2021/06/07 09:54:39;;;;;;;8.27;6.43;;;;;;;21.82;100.00;95430.34;4975846;28;20189;-82
2021/06/07 09:57:07;;;;;;;7.03;6.43;;;;;;;21.83;100.00;95415.88;4976226;28;20197;-83
2021/06/07 09:59:36;;;;;;;8.33;6.03;;;;;;;22.03;100.00;95412.63;4976334;28;20725;-82
2021/06/07 10:02:18;;;;;;;7.83;5.93;;;;;;;22.27;100.00;95409.69;4975822;28;20232;-82
2021/06/07 10:04:55;;;;;;;6.50;6.00;;;;;;;22.67;100.00;95451.28;4976025;28;20196;-83
2021/06/07 10:07:24;;;;;;;6.23;5.83;;;;;;;22.82;100.00;95467.47;4976614;28;20551;-83
2021/06/07 10:10:11;;;;;;;6.77;6.20;;;;;;;22.79;100.00;95519.72;4975746;28;20200;-82
2021/06/07 10:12:40;;;;;;;7.17;5.80;;;;;;;22.50;100.00;95511.13;4976138;28;20683;-82
2021/06/07 10:15:07;;;;;;;6.27;5.67;;;;;;;22.49;100.00;95512.19;4975584;28;20205;-82
2021/06/07 10:17:35;;;;;;;8.10;6.73;;;;;;;22.60;100.00;95466.75;4975816;28;20267;-82
2021/06/07 10:22:48;;;;;;;7.10;6.37;;;;;;;22.68;100.00;95485.03;4976091;28;20193;-83
2021/06/07 10:25:15;;;;;;;8.10;7.30;;;;;;;23.05;100.00;95513.81;4975484;28;20197;-82
2021/06/07 10:27:42;;;;;;;7.37;5.43;;;;;;;23.81;100.00;95518.91;4975663;28;20252;-82
2021/06/07 10:30:21;;;;;;;6.70;6.10;;;;;;;23.65;100.00;95678.94;4975551;28;20690;-83
2021/06/07 10:32:49;;;;;;;6.37;5.87;;;;;;;23.79;100.00;95660.56;4975923;28;20292;-83
2021/06/07 10:35:30;;;;;;;6.50;5.90;;;;;;;23.86;100.00;95680.75;4975441;28;20232;-83
2021/06/07 10:38:08;;;;;;;5.80;5.23;;;;;;;24.02;100.00;95745.31;4975172;28;20259;-83
2021/06/07 10:40:36;;;;;;;8.10;5.50;;;;;;;24.35;100.00;95631.41;4975344;28;20682;-83
2021/06/07 10:43:05;;;;;;;5.33;4.93;;;;;;;24.43;100.00;95730.31;4975566;28;20205;-83
2021/06/07 10:45:33;;;;;;;4.87;4.47;;;;;;;24.33;100.00;95806.22;4975339;28;20748;-83
2021/06/07 10:48:00;;;;;;;5.20;4.70;;;;;;;24.54;100.00;95814.47;4975145;28;20259;-83
2021/06/07 10:50:30;;;;;;;5.67;5.13;;;;;;;24.15;100.00;95828.09;4975168;28;20197;-84
2021/06/07 10:53:01;;;;;;;4.97;4.57;;;;;;;23.85;100.00;95807.94;4974868;28;20696;-83
2021/06/07 10:55:31;;;;;;;6.10;5.00;;;;;;;23.79;100.00;95755.28;4975410;28;20652;-84
2021/06/07 10:58:00;;;;;;;4.93;4.50;;;;;;;23.79;100.00;95824.25;4975230;28;20204;-83
2021/06/07 11:00:31;;;;;;;6.40;4.93;;;;;;;23.94;100.00;95781.47;4974943;28;20716;-84
2021/06/07 11:03:01;;;;;;;5.50;5.10;;;;;;;23.81;100.00;95808.72;4974687;28;20573;-84
2021/06/07 11:05:29;;;;;;;5.33;4.93;;;;;;;24.18;100.00;95927.75;4975057;28;20193;-85
2021/06/07 11:08:07;;;;;;;5.40;4.97;;;;;;;24.28;100.00;95910.09;4975139;28;20201;-84
2021/06/07 11:10:36;;;;;;;4.80;4.50;;;;;;;24.38;100.00;95857.28;4975190;28;20578;-84
2021/06/07 11:13:05;;;;;;;4.83;4.43;;;;;;;24.73;100.00;95856.00;4974558;28;20201;-84
2021/06/07 11:15:35;;;;;;;5.63;5.03;;;;;;;24.59;100.00;95930.88;4974779;28;20193;-83
2021/06/07 11:18:27;;;;;;;4.43;4.13;;;;;;;24.88;100.00;95946.69;4974908;28;20201;-84
2021/06/07 11:20:59;;;;;;;4.80;4.00;;;;;;;24.81;100.00;95973.78;4972479;28;20263;-84
2021/06/07 11:23:42;;;;;;;6.33;4.77;;;;;;;24.84;100.00;95907.94;4974415;28;20193;-84
2021/06/07 11:26:10;;;;;;;5.50;4.70;;;;;;;24.71;100.00;95895.75;4974596;28;20196;-84
2021/06/07 11:28:45;;;;;;;4.07;3.77;;;;;;;24.68;100.00;95960.75;4974306;28;20268;-84
2021/06/07 11:31:40;;;;;;;4.90;4.50;;;;;;;24.29;100.00;95944.78;4972501;28;20273;-84
2021/06/07 11:34:09;;;;;;;4.80;4.50;;;;;;;24.35;100.00;95948.31;4951041;28;20240;-85